sensor_id;sensor_type;location;lat;lon;timestamp;P1;durP1;ratioP1;P2;durP2;ratioP2
32611;SDS011;19030;49.478;8.986;2023-03-19T00:00:13;7.35;;;2.92;;
32611;SDS011;19030;49.478;8.986;2023-03-19T00:02:14;9.38;;;3.08;;
32611;SDS011;19030;49.478;8.986;2023-03-19T00:04:15;12.95;;;3.10;;
32611;SDS011;19030;49.478;8.986;2023-03-19T00:06:16;10.27;;;4.10;;
32611;SDS011;19030;49.478;8.986;2023-03-19T00:08:16;6.93;;;2.92;;
32611;SDS011;19030;49.478;8.986;2023-03-19T00:10:17;9.20;;;3.70;;
32611;SDS011;19030;49.478;8.986;2023-03-19T00:12:18;12.77;;;3.67;;
32611;SDS011;19030;49.478;8.986;2023-03-19T00:14:18;9.35;;;3.15;;
32611;SDS011;19030;49.478;8.986;2023-03-19T00:16:19;8.77;;;3.70;;
32611;SDS011;19030;49.478;8.986;2023-03-19T00:18:20;11.68;;;4.05;;
32611;SDS011;19030;49.478;8.986;2023-03-19T00:20:20;9.75;;;3.55;;
32611;SDS011;19030;49.478;8.986;2023-03-19T00:22:21;7.32;;;3.50;;
32611;SDS011;19030;49.478;8.986;2023-03-19T00:24:21;6.97;;;3.40;;
32611;SDS011;19030;49.478;8.986;2023-03-19T00:26:22;6.90;;;3.47;;
32611;SDS011;19030;49.478;8.986;2023-03-19T00:28:23;6.85;;;3.45;;
32611;SDS011;19030;49.478;8.986;2023-03-19T00:30:23;9.82;;;3.67;;
32611;SDS011;19030;49.478;8.986;2023-03-19T00:32:24;9.50;;;3.15;;
32611;SDS011;19030;49.478;8.986;2023-03-19T00:34:25;9.15;;;3.90;;
32611;SDS011;19030;49.478;8.986;2023-03-19T00:36:26;8.73;;;3.50;;
32611;SDS011;19030;49.478;8.986;2023-03-19T00:38:27;6.50;;;3.05;;
32611;SDS011;19030;49.478;8.986;2023-03-19T00:40:28;8.38;;;3.35;;
32611;SDS011;19030;49.478;8.986;2023-03-19T00:42:29;7.68;;;3.63;;
32611;SDS011;19030;49.478;8.986;2023-03-19T00:44:30;9.15;;;3.33;;
32611;SDS011;19030;49.478;8.986;2023-03-19T00:46:31;8.77;;;3.45;;
32611;SDS011;19030;49.478;8.986;2023-03-19T00:48:32;7.38;;;3.30;;
32611;SDS011;19030;49.478;8.986;2023-03-19T00:50:32;7.68;;;3.25;;
32611;SDS011;19030;49.478;8.986;2023-03-19T00:52:33;7.95;;;3.60;;
32611;SDS011;19030;49.478;8.986;2023-03-19T00:54:33;7.15;;;3.22;;
32611;SDS011;19030;49.478;8.986;2023-03-19T00:56:34;9.00;;;2.88;;
32611;SDS011;19030;49.478;8.986;2023-03-19T00:58:35;8.10;;;3.05;;
32611;SDS011;19030;49.478;8.986;2023-03-19T01:00:37;7.97;;;3.33;;
32611;SDS011;19030;49.478;8.986;2023-03-19T01:02:38;7.60;;;3.28;;
32611;SDS011;19030;49.478;8.986;2023-03-19T01:04:39;9.45;;;4.05;;
32611;SDS011;19030;49.478;8.986;2023-03-19T01:06:40;8.20;;;3.38;;
32611;SDS011;19030;49.478;8.986;2023-03-19T01:08:40;7.47;;;3.00;;
32611;SDS011;19030;49.478;8.986;2023-03-19T01:10:41;20.83;;;4.55;;
32611;SDS011;19030;49.478;8.986;2023-03-19T01:12:42;11.75;;;3.50;;
32611;SDS011;19030;49.478;8.986;2023-03-19T01:14:43;6.65;;;3.05;;
32611;SDS011;19030;49.478;8.986;2023-03-19T01:16:43;7.30;;;3.30;;
32611;SDS011;19030;49.478;8.986;2023-03-19T01:18:44;8.73;;;3.28;;
32611;SDS011;19030;49.478;8.986;2023-03-19T01:20:45;6.97;;;3.03;;
32611;SDS011;19030;49.478;8.986;2023-03-19T01:22:46;7.38;;;3.38;;
32611;SDS011;19030;49.478;8.986;2023-03-19T01:24:47;8.60;;;4.65;;
32611;SDS011;19030;49.478;8.986;2023-03-19T01:26:48;7.78;;;3.20;;
32611;SDS011;19030;49.478;8.986;2023-03-19T01:29:20;6.93;;;2.78;;
32611;SDS011;19030;49.478;8.986;2023-03-19T01:31:21;9.88;;;3.33;;
32611;SDS011;19030;49.478;8.986;2023-03-19T01:33:30;9.13;;;3.42;;
32611;SDS011;19030;49.478;8.986;2023-03-19T01:35:36;7.75;;;3.00;;
32611;SDS011;19030;49.478;8.986;2023-03-19T01:37:37;7.38;;;3.45;;
32611;SDS011;19030;49.478;8.986;2023-03-19T01:39:38;9.18;;;3.60;;
32611;SDS011;19030;49.478;8.986;2023-03-19T01:41:43;6.72;;;3.13;;
32611;SDS011;19030;49.478;8.986;2023-03-19T01:44:25;7.60;;;3.08;;
32611;SDS011;19030;49.478;8.986;2023-03-19T01:47:04;7.72;;;3.03;;
32611;SDS011;19030;49.478;8.986;2023-03-19T01:49:29;11.80;;;3.25;;
32611;SDS011;19030;49.478;8.986;2023-03-19T01:51:53;5.97;;;2.60;;
32611;SDS011;19030;49.478;8.986;2023-03-19T01:54:06;7.90;;;3.45;;
32611;SDS011;19030;49.478;8.986;2023-03-19T01:56:23;9.05;;;3.40;;
32611;SDS011;19030;49.478;8.986;2023-03-19T01:58:55;11.50;;;3.47;;
32611;SDS011;19030;49.478;8.986;2023-03-19T02:01:10;7.18;;;3.35;;
32611;SDS011;19030;49.478;8.986;2023-03-19T02:03:16;8.97;;;2.87;;
32611;SDS011;19030;49.478;8.986;2023-03-19T02:05:23;7.55;;;3.08;;
32611;SDS011;19030;49.478;8.986;2023-03-19T02:07:28;9.85;;;3.45;;
32611;SDS011;19030;49.478;8.986;2023-03-19T02:09:30;7.60;;;2.97;;
32611;SDS011;19030;49.478;8.986;2023-03-19T02:11:31;6.40;;;3.15;;
32611;SDS011;19030;49.478;8.986;2023-03-19T02:13:33;6.55;;;2.92;;
32611;SDS011;19030;49.478;8.986;2023-03-19T02:15:34;9.50;;;3.50;;
32611;SDS011;19030;49.478;8.986;2023-03-19T02:17:35;8.65;;;3.53;;
32611;SDS011;19030;49.478;8.986;2023-03-19T02:19:38;6.20;;;3.05;;
32611;SDS011;19030;49.478;8.986;2023-03-19T02:21:48;9.55;;;3.30;;
32611;SDS011;19030;49.478;8.986;2023-03-19T02:24:01;9.70;;;3.05;;
32611;SDS011;19030;49.478;8.986;2023-03-19T02:26:24;6.65;;;2.90;;
32611;SDS011;19030;49.478;8.986;2023-03-19T02:28:33;6.38;;;3.40;;
32611;SDS011;19030;49.478;8.986;2023-03-19T02:30:38;6.00;;;2.90;;
32611;SDS011;19030;49.478;8.986;2023-03-19T02:32:43;6.20;;;2.88;;
32611;SDS011;19030;49.478;8.986;2023-03-19T02:34:44;8.63;;;3.08;;
32611;SDS011;19030;49.478;8.986;2023-03-19T02:36:46;9.95;;;2.97;;
32611;SDS011;19030;49.478;8.986;2023-03-19T02:38:51;7.20;;;2.83;;
32611;SDS011;19030;49.478;8.986;2023-03-19T02:41:00;6.25;;;2.80;;
32611;SDS011;19030;49.478;8.986;2023-03-19T02:43:03;7.57;;;3.10;;
32611;SDS011;19030;49.478;8.986;2023-03-19T02:45:04;5.90;;;2.53;;
32611;SDS011;19030;49.478;8.986;2023-03-19T02:47:06;8.10;;;2.97;;
32611;SDS011;19030;49.478;8.986;2023-03-19T02:49:06;9.95;;;3.20;;
32611;SDS011;19030;49.478;8.986;2023-03-19T02:51:07;6.50;;;3.10;;
32611;SDS011;19030;49.478;8.986;2023-03-19T02:53:07;6.43;;;2.70;;
32611;SDS011;19030;49.478;8.986;2023-03-19T02:55:09;8.30;;;3.15;;
32611;SDS011;19030;49.478;8.986;2023-03-19T02:57:09;8.05;;;2.65;;
32611;SDS011;19030;49.478;8.986;2023-03-19T02:59:10;6.05;;;2.83;;
32611;SDS011;19030;49.478;8.986;2023-03-19T03:01:11;7.80;;;3.30;;
32611;SDS011;19030;49.478;8.986;2023-03-19T03:03:12;8.27;;;2.95;;
32611;SDS011;19030;49.478;8.986;2023-03-19T03:05:13;7.20;;;2.97;;
32611;SDS011;19030;49.478;8.986;2023-03-19T03:07:13;7.47;;;3.10;;
32611;SDS011;19030;49.478;8.986;2023-03-19T03:09:14;7.05;;;3.05;;
32611;SDS011;19030;49.478;8.986;2023-03-19T03:11:14;8.63;;;3.20;;
32611;SDS011;19030;49.478;8.986;2023-03-19T03:13:15;9.60;;;2.78;;
32611;SDS011;19030;49.478;8.986;2023-03-19T03:15:16;5.38;;;2.70;;
32611;SDS011;19030;49.478;8.986;2023-03-19T03:17:16;10.20;;;3.10;;
32611;SDS011;19030;49.478;8.986;2023-03-19T03:19:17;8.60;;;3.00;;
32611;SDS011;19030;49.478;8.986;2023-03-19T03:21:19;6.88;;;3.00;;
32611;SDS011;19030;49.478;8.986;2023-03-19T03:23:20;6.25;;;2.97;;
32611;SDS011;19030;49.478;8.986;2023-03-19T03:25:21;10.35;;;2.83;;
32611;SDS011;19030;49.478;8.986;2023-03-19T03:27:22;7.25;;;2.90;;
32611;SDS011;19030;49.478;8.986;2023-03-19T03:29:22;8.18;;;2.70;;
32611;SDS011;19030;49.478;8.986;2023-03-19T03:31:23;5.53;;;2.70;;
32611;SDS011;19030;49.478;8.986;2023-03-19T03:33:24;7.63;;;2.83;;
32611;SDS011;19030;49.478;8.986;2023-03-19T03:35:24;6.35;;;3.05;;
32611;SDS011;19030;49.478;8.986;2023-03-19T03:37:26;9.80;;;2.97;;
32611;SDS011;19030;49.478;8.986;2023-03-19T03:39:26;7.82;;;2.80;;
32611;SDS011;19030;49.478;8.986;2023-03-19T03:41:27;8.38;;;3.13;;
32611;SDS011;19030;49.478;8.986;2023-03-19T03:43:28;4.65;;;2.42;;
32611;SDS011;19030;49.478;8.986;2023-03-19T03:45:29;8.52;;;3.22;;
32611;SDS011;19030;49.478;8.986;2023-03-19T03:47:30;6.40;;;2.80;;
32611;SDS011;19030;49.478;8.986;2023-03-19T03:49:31;6.80;;;2.85;;
32611;SDS011;19030;49.478;8.986;2023-03-19T03:51:31;8.18;;;3.00;;
32611;SDS011;19030;49.478;8.986;2023-03-19T03:53:32;7.47;;;2.63;;
32611;SDS011;19030;49.478;8.986;2023-03-19T03:55:34;7.78;;;2.90;;
32611;SDS011;19030;49.478;8.986;2023-03-19T03:57:35;6.22;;;2.95;;
32611;SDS011;19030;49.478;8.986;2023-03-19T03:59:36;7.53;;;3.08;;
32611;SDS011;19030;49.478;8.986;2023-03-19T04:01:37;6.53;;;2.80;;
32611;SDS011;19030;49.478;8.986;2023-03-19T04:03:38;4.90;;;2.45;;
32611;SDS011;19030;49.478;8.986;2023-03-19T04:05:40;9.02;;;3.00;;
32611;SDS011;19030;49.478;8.986;2023-03-19T04:07:41;9.02;;;2.92;;
32611;SDS011;19030;49.478;8.986;2023-03-19T04:09:42;8.88;;;3.35;;
32611;SDS011;19030;49.478;8.986;2023-03-19T04:11:42;7.63;;;3.00;;
32611;SDS011;19030;49.478;8.986;2023-03-19T04:13:43;6.00;;;2.63;;
32611;SDS011;19030;49.478;8.986;2023-03-19T04:15:44;10.10;;;3.20;;
32611;SDS011;19030;49.478;8.986;2023-03-19T04:17:45;6.28;;;3.08;;
32611;SDS011;19030;49.478;8.986;2023-03-19T04:19:46;9.52;;;3.03;;
32611;SDS011;19030;49.478;8.986;2023-03-19T04:21:47;6.55;;;2.80;;
32611;SDS011;19030;49.478;8.986;2023-03-19T04:23:48;5.45;;;2.70;;
32611;SDS011;19030;49.478;8.986;2023-03-19T04:25:48;7.03;;;2.95;;
32611;SDS011;19030;49.478;8.986;2023-03-19T04:27:50;5.65;;;2.60;;
32611;SDS011;19030;49.478;8.986;2023-03-19T04:29:52;5.75;;;2.83;;
32611;SDS011;19030;49.478;8.986;2023-03-19T04:31:53;8.90;;;3.17;;
32611;SDS011;19030;49.478;8.986;2023-03-19T04:33:54;7.57;;;3.00;;
32611;SDS011;19030;49.478;8.986;2023-03-19T04:35:54;8.07;;;2.75;;
32611;SDS011;19030;49.478;8.986;2023-03-19T04:37:55;9.00;;;3.25;;
32611;SDS011;19030;49.478;8.986;2023-03-19T04:39:56;8.80;;;3.10;;
32611;SDS011;19030;49.478;8.986;2023-03-19T04:41:58;11.05;;;3.20;;
32611;SDS011;19030;49.478;8.986;2023-03-19T04:44:05;8.88;;;3.40;;
32611;SDS011;19030;49.478;8.986;2023-03-19T04:46:07;9.50;;;3.03;;
32611;SDS011;19030;49.478;8.986;2023-03-19T04:48:09;9.13;;;3.05;;
32611;SDS011;19030;49.478;8.986;2023-03-19T04:50:10;7.50;;;3.10;;
32611;SDS011;19030;49.478;8.986;2023-03-19T04:52:11;7.13;;;3.03;;
32611;SDS011;19030;49.478;8.986;2023-03-19T04:54:13;8.18;;;2.70;;
32611;SDS011;19030;49.478;8.986;2023-03-19T04:56:13;8.50;;;2.67;;
32611;SDS011;19030;49.478;8.986;2023-03-19T04:58:16;8.70;;;3.03;;
32611;SDS011;19030;49.478;8.986;2023-03-19T05:00:21;13.90;;;2.85;;
32611;SDS011;19030;49.478;8.986;2023-03-19T05:02:22;7.28;;;3.10;;
32611;SDS011;19030;49.478;8.986;2023-03-19T05:04:24;6.35;;;2.95;;
32611;SDS011;19030;49.478;8.986;2023-03-19T05:06:30;7.88;;;3.03;;
32611;SDS011;19030;49.478;8.986;2023-03-19T05:08:32;8.85;;;3.22;;
32611;SDS011;19030;49.478;8.986;2023-03-19T05:12:33;9.80;;;3.17;;
32611;SDS011;19030;49.478;8.986;2023-03-19T05:14:34;7.18;;;2.72;;
32611;SDS011;19030;49.478;8.986;2023-03-19T05:16:47;5.93;;;2.78;;
32611;SDS011;19030;49.478;8.986;2023-03-19T05:18:48;8.75;;;3.22;;
32611;SDS011;19030;49.478;8.986;2023-03-19T05:20:49;8.95;;;3.00;;
32611;SDS011;19030;49.478;8.986;2023-03-19T05:22:53;9.23;;;3.30;;
32611;SDS011;19030;49.478;8.986;2023-03-19T05:24:58;7.80;;;3.20;;
32611;SDS011;19030;49.478;8.986;2023-03-19T05:27:00;6.95;;;2.88;;
32611;SDS011;19030;49.478;8.986;2023-03-19T05:29:16;9.07;;;3.05;;
32611;SDS011;19030;49.478;8.986;2023-03-19T05:31:37;6.10;;;3.10;;
32611;SDS011;19030;49.478;8.986;2023-03-19T05:33:37;6.80;;;3.00;;
32611;SDS011;19030;49.478;8.986;2023-03-19T05:35:39;7.53;;;3.10;;
32611;SDS011;19030;49.478;8.986;2023-03-19T05:37:47;7.55;;;3.15;;
32611;SDS011;19030;49.478;8.986;2023-03-19T05:39:48;9.52;;;3.08;;
32611;SDS011;19030;49.478;8.986;2023-03-19T05:41:50;10.05;;;3.22;;
32611;SDS011;19030;49.478;8.986;2023-03-19T05:43:55;7.55;;;3.03;;
32611;SDS011;19030;49.478;8.986;2023-03-19T05:46:17;6.53;;;2.80;;
32611;SDS011;19030;49.478;8.986;2023-03-19T05:48:18;9.27;;;3.10;;
32611;SDS011;19030;49.478;8.986;2023-03-19T05:50:18;6.15;;;3.08;;
32611;SDS011;19030;49.478;8.986;2023-03-19T05:52:45;7.18;;;3.15;;
32611;SDS011;19030;49.478;8.986;2023-03-19T05:54:46;6.60;;;2.70;;
32611;SDS011;19030;49.478;8.986;2023-03-19T05:57:17;7.50;;;2.90;;
32611;SDS011;19030;49.478;8.986;2023-03-19T05:59:22;11.00;;;3.35;;
32611;SDS011;19030;49.478;8.986;2023-03-19T06:01:36;6.90;;;3.20;;
32611;SDS011;19030;49.478;8.986;2023-03-19T06:03:37;7.50;;;2.90;;
32611;SDS011;19030;49.478;8.986;2023-03-19T06:05:41;6.50;;;2.92;;
32611;SDS011;19030;49.478;8.986;2023-03-19T06:07:51;8.18;;;3.42;;
32611;SDS011;19030;49.478;8.986;2023-03-19T06:10:02;6.13;;;2.58;;
32611;SDS011;19030;49.478;8.986;2023-03-19T06:12:04;8.30;;;3.22;;
32611;SDS011;19030;49.478;8.986;2023-03-19T06:14:20;7.90;;;3.75;;
32611;SDS011;19030;49.478;8.986;2023-03-19T06:16:39;10.95;;;3.80;;
32611;SDS011;19030;49.478;8.986;2023-03-19T06:18:39;8.52;;;3.80;;
32611;SDS011;19030;49.478;8.986;2023-03-19T06:20:45;8.32;;;3.95;;
32611;SDS011;19030;49.478;8.986;2023-03-19T06:22:47;11.57;;;3.95;;
32611;SDS011;19030;49.478;8.986;2023-03-19T06:24:47;11.77;;;4.95;;
32611;SDS011;19030;49.478;8.986;2023-03-19T06:26:48;7.97;;;4.07;;
32611;SDS011;19030;49.478;8.986;2023-03-19T06:28:48;8.98;;;3.50;;
32611;SDS011;19030;49.478;8.986;2023-03-19T06:30:50;9.90;;;3.78;;
32611;SDS011;19030;49.478;8.986;2023-03-19T06:33:12;7.80;;;3.30;;
32611;SDS011;19030;49.478;8.986;2023-03-19T06:35:13;8.85;;;4.95;;
32611;SDS011;19030;49.478;8.986;2023-03-19T06:37:17;10.77;;;4.10;;
32611;SDS011;19030;49.478;8.986;2023-03-19T06:39:18;8.63;;;3.38;;
32611;SDS011;19030;49.478;8.986;2023-03-19T06:41:18;9.10;;;3.33;;
32611;SDS011;19030;49.478;8.986;2023-03-19T06:43:21;7.75;;;3.00;;
32611;SDS011;19030;49.478;8.986;2023-03-19T06:45:22;9.68;;;3.58;;
32611;SDS011;19030;49.478;8.986;2023-03-19T06:47:22;7.25;;;3.08;;
32611;SDS011;19030;49.478;8.986;2023-03-19T06:49:23;6.90;;;3.20;;
32611;SDS011;19030;49.478;8.986;2023-03-19T06:51:23;11.15;;;3.45;;
32611;SDS011;19030;49.478;8.986;2023-03-19T06:53:26;8.43;;;3.42;;
32611;SDS011;19030;49.478;8.986;2023-03-19T06:55:27;7.90;;;3.00;;
32611;SDS011;19030;49.478;8.986;2023-03-19T06:57:29;7.72;;;3.75;;
32611;SDS011;19030;49.478;8.986;2023-03-19T06:59:30;9.15;;;3.88;;
32611;SDS011;19030;49.478;8.986;2023-03-19T07:01:31;7.40;;;3.60;;
32611;SDS011;19030;49.478;8.986;2023-03-19T07:03:31;6.85;;;2.90;;
32611;SDS011;19030;49.478;8.986;2023-03-19T07:05:32;7.35;;;3.38;;
32611;SDS011;19030;49.478;8.986;2023-03-19T07:07:33;7.00;;;3.28;;
32611;SDS011;19030;49.478;8.986;2023-03-19T07:09:33;7.95;;;3.47;;
32611;SDS011;19030;49.478;8.986;2023-03-19T07:11:34;8.38;;;3.05;;
32611;SDS011;19030;49.478;8.986;2023-03-19T07:13:34;8.63;;;3.10;;
32611;SDS011;19030;49.478;8.986;2023-03-19T07:15:37;7.35;;;3.13;;
32611;SDS011;19030;49.478;8.986;2023-03-19T07:17:37;8.20;;;3.33;;
32611;SDS011;19030;49.478;8.986;2023-03-19T07:19:38;7.95;;;3.65;;
32611;SDS011;19030;49.478;8.986;2023-03-19T07:21:38;7.82;;;3.38;;
32611;SDS011;19030;49.478;8.986;2023-03-19T07:23:39;4.97;;;2.60;;
32611;SDS011;19030;49.478;8.986;2023-03-19T07:25:40;7.38;;;3.33;;
32611;SDS011;19030;49.478;8.986;2023-03-19T07:27:41;6.85;;;3.03;;
32611;SDS011;19030;49.478;8.986;2023-03-19T07:29:41;7.88;;;3.05;;
32611;SDS011;19030;49.478;8.986;2023-03-19T07:31:42;8.95;;;3.40;;
32611;SDS011;19030;49.478;8.986;2023-03-19T07:33:42;10.80;;;4.30;;
32611;SDS011;19030;49.478;8.986;2023-03-19T07:35:43;9.93;;;3.75;;
32611;SDS011;19030;49.478;8.986;2023-03-19T07:37:43;13.00;;;4.05;;
32611;SDS011;19030;49.478;8.986;2023-03-19T07:39:44;12.43;;;5.00;;
32611;SDS011;19030;49.478;8.986;2023-03-19T07:41:45;13.95;;;4.80;;
32611;SDS011;19030;49.478;8.986;2023-03-19T07:43:48;11.55;;;4.80;;
32611;SDS011;19030;49.478;8.986;2023-03-19T07:45:49;11.82;;;4.63;;
32611;SDS011;19030;49.478;8.986;2023-03-19T07:47:50;9.07;;;4.28;;
32611;SDS011;19030;49.478;8.986;2023-03-19T07:49:51;8.90;;;4.07;;
32611;SDS011;19030;49.478;8.986;2023-03-19T07:51:52;9.73;;;4.20;;
32611;SDS011;19030;49.478;8.986;2023-03-19T07:53:52;11.70;;;3.38;;
32611;SDS011;19030;49.478;8.986;2023-03-19T07:55:53;8.70;;;3.40;;
32611;SDS011;19030;49.478;8.986;2023-03-19T07:57:53;7.80;;;3.30;;
32611;SDS011;19030;49.478;8.986;2023-03-19T07:59:54;7.10;;;3.10;;
32611;SDS011;19030;49.478;8.986;2023-03-19T08:01:54;6.28;;;3.15;;
32611;SDS011;19030;49.478;8.986;2023-03-19T08:03:55;8.05;;;3.22;;
32611;SDS011;19030;49.478;8.986;2023-03-19T08:05:56;5.75;;;2.95;;
32611;SDS011;19030;49.478;8.986;2023-03-19T08:07:56;8.88;;;4.30;;
32611;SDS011;19030;49.478;8.986;2023-03-19T08:09:57;12.85;;;4.03;;
32611;SDS011;19030;49.478;8.986;2023-03-19T08:11:57;8.98;;;4.68;;
32611;SDS011;19030;49.478;8.986;2023-03-19T08:13:58;6.82;;;3.28;;
32611;SDS011;19030;49.478;8.986;2023-03-19T08:15:58;10.07;;;3.17;;
32611;SDS011;19030;49.478;8.986;2023-03-19T08:18:00;6.53;;;2.90;;
32611;SDS011;19030;49.478;8.986;2023-03-19T08:20:03;8.48;;;3.05;;
32611;SDS011;19030;49.478;8.986;2023-03-19T08:22:09;7.20;;;3.10;;
32611;SDS011;19030;49.478;8.986;2023-03-19T08:24:09;6.60;;;3.65;;
32611;SDS011;19030;49.478;8.986;2023-03-19T08:26:10;7.28;;;3.72;;
32611;SDS011;19030;49.478;8.986;2023-03-19T08:28:11;8.35;;;3.33;;
32611;SDS011;19030;49.478;8.986;2023-03-19T08:30:11;8.68;;;3.70;;
32611;SDS011;19030;49.478;8.986;2023-03-19T08:32:12;8.65;;;4.07;;
32611;SDS011;19030;49.478;8.986;2023-03-19T08:34:13;11.25;;;3.75;;
32611;SDS011;19030;49.478;8.986;2023-03-19T08:36:13;8.88;;;4.07;;
32611;SDS011;19030;49.478;8.986;2023-03-19T08:38:14;11.18;;;5.13;;
32611;SDS011;19030;49.478;8.986;2023-03-19T08:40:15;9.30;;;4.57;;
32611;SDS011;19030;49.478;8.986;2023-03-19T08:42:15;12.60;;;5.43;;
32611;SDS011;19030;49.478;8.986;2023-03-19T08:44:16;9.25;;;4.75;;
32611;SDS011;19030;49.478;8.986;2023-03-19T08:46:17;13.60;;;6.28;;
32611;SDS011;19030;49.478;8.986;2023-03-19T08:48:18;12.68;;;6.60;;
32611;SDS011;19030;49.478;8.986;2023-03-19T08:50:18;15.70;;;7.60;;
32611;SDS011;19030;49.478;8.986;2023-03-19T08:52:19;19.63;;;15.60;;
32611;SDS011;19030;49.478;8.986;2023-03-19T08:54:20;23.30;;;16.15;;
32611;SDS011;19030;49.478;8.986;2023-03-19T08:56:20;14.82;;;12.35;;
32611;SDS011;19030;49.478;8.986;2023-03-19T08:58:21;10.95;;;4.78;;
32611;SDS011;19030;49.478;8.986;2023-03-19T09:00:22;12.68;;;11.23;;
32611;SDS011;19030;49.478;8.986;2023-03-19T09:02:23;9.65;;;4.72;;
32611;SDS011;19030;49.478;8.986;2023-03-19T09:04:24;9.45;;;6.00;;
32611;SDS011;19030;49.478;8.986;2023-03-19T09:06:24;7.88;;;3.97;;
32611;SDS011;19030;49.478;8.986;2023-03-19T09:08:25;8.10;;;4.03;;
32611;SDS011;19030;49.478;8.986;2023-03-19T09:10:27;6.60;;;4.00;;
32611;SDS011;19030;49.478;8.986;2023-03-19T09:12:28;7.68;;;4.03;;
32611;SDS011;19030;49.478;8.986;2023-03-19T09:14:28;7.25;;;3.70;;
32611;SDS011;19030;49.478;8.986;2023-03-19T09:16:29;10.93;;;4.30;;
32611;SDS011;19030;49.478;8.986;2023-03-19T09:18:30;9.93;;;4.30;;
32611;SDS011;19030;49.478;8.986;2023-03-19T09:20:31;9.10;;;4.07;;
32611;SDS011;19030;49.478;8.986;2023-03-19T09:22:32;8.48;;;4.60;;
32611;SDS011;19030;49.478;8.986;2023-03-19T09:24:32;8.40;;;4.35;;
32611;SDS011;19030;49.478;8.986;2023-03-19T09:26:33;9.20;;;3.90;;
32611;SDS011;19030;49.478;8.986;2023-03-19T09:28:34;7.85;;;4.15;;
32611;SDS011;19030;49.478;8.986;2023-03-19T09:30:35;7.72;;;3.85;;
32611;SDS011;19030;49.478;8.986;2023-03-19T09:32:36;9.10;;;5.53;;
32611;SDS011;19030;49.478;8.986;2023-03-19T09:34:36;9.57;;;5.03;;
32611;SDS011;19030;49.478;8.986;2023-03-19T09:36:37;8.02;;;4.60;;
32611;SDS011;19030;49.478;8.986;2023-03-19T09:38:38;9.88;;;4.30;;
32611;SDS011;19030;49.478;8.986;2023-03-19T09:40:43;8.00;;;4.22;;
32611;SDS011;19030;49.478;8.986;2023-03-19T09:43:30;6.63;;;3.85;;
32611;SDS011;19030;49.478;8.986;2023-03-19T09:45:25;7.35;;;3.72;;
32611;SDS011;19030;49.478;8.986;2023-03-19T09:47:32;7.82;;;3.97;;
32611;SDS011;19030;49.478;8.986;2023-03-19T09:49:37;8.50;;;4.20;;
32611;SDS011;19030;49.478;8.986;2023-03-19T09:54:48;7.55;;;4.03;;
32611;SDS011;19030;49.478;8.986;2023-03-19T09:56:17;6.93;;;3.97;;
32611;SDS011;19030;49.478;8.986;2023-03-19T09:58:30;7.20;;;4.15;;
32611;SDS011;19030;49.478;8.986;2023-03-19T10:00:33;8.60;;;3.95;;
32611;SDS011;19030;49.478;8.986;2023-03-19T10:02:40;7.03;;;4.18;;
32611;SDS011;19030;49.478;8.986;2023-03-19T10:07:07;6.13;;;3.88;;
32611;SDS011;19030;49.478;8.986;2023-03-19T10:09:28;7.43;;;3.75;;
32611;SDS011;19030;49.478;8.986;2023-03-19T10:14:18;7.95;;;4.57;;
32611;SDS011;19030;49.478;8.986;2023-03-19T10:16:38;6.90;;;3.78;;
32611;SDS011;19030;49.478;8.986;2023-03-19T10:18:43;6.40;;;4.20;;
32611;SDS011;19030;49.478;8.986;2023-03-19T10:21:03;8.43;;;4.10;;
32611;SDS011;19030;49.478;8.986;2023-03-19T10:23:24;6.32;;;3.40;;
32611;SDS011;19030;49.478;8.986;2023-03-19T10:25:32;6.85;;;3.55;;
32611;SDS011;19030;49.478;8.986;2023-03-19T10:27:38;6.00;;;3.75;;
32611;SDS011;19030;49.478;8.986;2023-03-19T10:29:40;8.65;;;5.15;;
32611;SDS011;19030;49.478;8.986;2023-03-19T10:36:14;7.47;;;4.70;;
32611;SDS011;19030;49.478;8.986;2023-03-19T10:38:21;8.68;;;6.00;;
32611;SDS011;19030;49.478;8.986;2023-03-19T10:40:25;10.70;;;5.45;;
32611;SDS011;19030;49.478;8.986;2023-03-19T10:42:55;8.27;;;7.05;;
32611;SDS011;19030;49.478;8.986;2023-03-19T10:47:34;7.05;;;5.93;;
32611;SDS011;19030;49.478;8.986;2023-03-19T10:49:38;9.65;;;6.45;;
32611;SDS011;19030;49.478;8.986;2023-03-19T10:51:39;9.93;;;7.57;;
32611;SDS011;19030;49.478;8.986;2023-03-19T10:53:44;8.45;;;4.20;;
32611;SDS011;19030;49.478;8.986;2023-03-19T10:55:46;11.45;;;8.40;;
32611;SDS011;19030;49.478;8.986;2023-03-19T10:57:55;10.73;;;7.05;;
32611;SDS011;19030;49.478;8.986;2023-03-19T11:00:04;10.55;;;6.60;;
32611;SDS011;19030;49.478;8.986;2023-03-19T11:04:21;12.15;;;8.50;;
32611;SDS011;19030;49.478;8.986;2023-03-19T11:06:35;12.15;;;9.40;;
32611;SDS011;19030;49.478;8.986;2023-03-19T11:08:37;9.65;;;6.80;;
32611;SDS011;19030;49.478;8.986;2023-03-19T11:10:39;10.38;;;7.07;;
32611;SDS011;19030;49.478;8.986;2023-03-19T11:12:53;10.45;;;6.88;;
32611;SDS011;19030;49.478;8.986;2023-03-19T11:14:57;11.25;;;8.13;;
32611;SDS011;19030;49.478;8.986;2023-03-19T11:17:03;9.68;;;7.50;;
32611;SDS011;19030;49.478;8.986;2023-03-19T11:19:13;21.85;;;8.50;;
32611;SDS011;19030;49.478;8.986;2023-03-19T11:21:23;10.10;;;7.82;;
32611;SDS011;19030;49.478;8.986;2023-03-19T11:23:30;9.60;;;7.85;;
32611;SDS011;19030;49.478;8.986;2023-03-19T11:25:41;9.50;;;7.88;;
32611;SDS011;19030;49.478;8.986;2023-03-19T11:27:58;11.48;;;7.57;;
32611;SDS011;19030;49.478;8.986;2023-03-19T11:30:00;9.43;;;8.43;;
32611;SDS011;19030;49.478;8.986;2023-03-19T11:43:36;9.80;;;6.90;;
32611;SDS011;19030;49.478;8.986;2023-03-19T11:46:00;12.27;;;7.03;;
32611;SDS011;19030;49.478;8.986;2023-03-19T11:50:49;12.35;;;7.57;;
32611;SDS011;19030;49.478;8.986;2023-03-19T11:55:18;9.07;;;7.00;;
32611;SDS011;19030;49.478;8.986;2023-03-19T12:00:02;9.40;;;6.80;;
32611;SDS011;19030;49.478;8.986;2023-03-19T12:02:28;10.40;;;7.40;;
32611;SDS011;19030;49.478;8.986;2023-03-19T12:07:08;15.45;;;6.90;;
32611;SDS011;19030;49.478;8.986;2023-03-19T12:09:27;8.32;;;6.22;;
32611;SDS011;19030;49.478;8.986;2023-03-19T12:11:52;7.65;;;5.43;;
32611;SDS011;19030;49.478;8.986;2023-03-19T12:16:44;10.48;;;7.13;;
32611;SDS011;19030;49.478;8.986;2023-03-19T12:21:32;9.75;;;7.22;;
32611;SDS011;19030;49.478;8.986;2023-03-19T12:23:57;9.90;;;7.20;;
32611;SDS011;19030;49.478;8.986;2023-03-19T12:26:08;10.70;;;8.00;;
32611;SDS011;19030;49.478;8.986;2023-03-19T12:28:23;9.20;;;6.90;;
32611;SDS011;19030;49.478;8.986;2023-03-19T12:30:35;7.25;;;3.42;;
32611;SDS011;19030;49.478;8.986;2023-03-19T12:32:51;7.93;;;3.95;;
32611;SDS011;19030;49.478;8.986;2023-03-19T12:35:15;9.57;;;3.80;;
32611;SDS011;19030;49.478;8.986;2023-03-19T12:37:22;7.90;;;3.50;;
32611;SDS011;19030;49.478;8.986;2023-03-19T12:39:30;7.60;;;3.55;;
32611;SDS011;19030;49.478;8.986;2023-03-19T12:41:35;7.07;;;3.78;;
32611;SDS011;19030;49.478;8.986;2023-03-19T12:44:00;11.00;;;3.92;;
32611;SDS011;19030;49.478;8.986;2023-03-19T12:46:12;7.40;;;3.80;;
32611;SDS011;19030;49.478;8.986;2023-03-19T12:50:46;7.65;;;3.17;;
32611;SDS011;19030;49.478;8.986;2023-03-19T12:52:52;9.23;;;5.55;;
32611;SDS011;19030;49.478;8.986;2023-03-19T12:55:01;9.80;;;7.47;;
32611;SDS011;19030;49.478;8.986;2023-03-19T12:57:16;9.73;;;7.20;;
32611;SDS011;19030;49.478;8.986;2023-03-19T12:59:31;11.02;;;7.82;;
32611;SDS011;19030;49.478;8.986;2023-03-19T13:04:25;11.18;;;5.72;;
32611;SDS011;19030;49.478;8.986;2023-03-19T13:08:38;10.80;;;6.78;;
32611;SDS011;19030;49.478;8.986;2023-03-19T13:10:43;10.00;;;6.70;;
32611;SDS011;19030;49.478;8.986;2023-03-19T13:12:44;11.38;;;6.82;;
32611;SDS011;19030;49.478;8.986;2023-03-19T13:17:11;11.50;;;5.70;;
32611;SDS011;19030;49.478;8.986;2023-03-19T13:19:50;8.90;;;5.32;;
32611;SDS011;19030;49.478;8.986;2023-03-19T13:21:54;8.52;;;3.90;;
32611;SDS011;19030;49.478;8.986;2023-03-19T13:24:01;7.20;;;3.27;;